Saddlestring, Wyoming
Current Conditions -  °F | °C
As of 2:53 AM on Wednesday 26 Nov 2014 (Local Time) from KBYG Reporting Station
Overcast Overcast  
Wind Chill: 18°   Ceiling: 5500
Heat Index: 26°   Visibility: 10mi
Dew Point: 18°   Wind: 7mph
Humidity: 71%   Direction: 300°WNW
Pressure: 30.15"   Gusts: NA
Location:  44.46°N, 106.9°W
Report Text: KBYG 260953Z AUTO 30006KT 10SM OVC055 M03/M08 A3015 RMK AO2 SNE02 SLP239 P0000 T10331078
Loading
Personal Weather Stations






























Interactive Weather Map New forecast layout! Learn more

10-Day Weather Forecast

Advertisements
Track Severe Weather on mobile